Time;durP1;ratioP1;P1;durP2;ratioP2;P2;SDS_P1;SDS_P2;PMS_P1;PMS_P2;Temp;Humidity;BMP_temperature;BMP_pressure;BME280_temperature;BME280_humidity;BME280_pressure;Samples;Min_cycle;Max_cycle;Signal;HPM_P1;HPM_P2
2022/09/29 00:01:01;;;;;;;1.95;1.75;;;12.70;99.90;;;;;;5067724;28;20214;-75
2022/09/29 00:03:28;;;;;;;1.98;1.77;;;12.70;99.90;;;;;;5069421;28;20568;-76
2022/09/29 00:05:57;;;;;;;1.70;1.60;;;12.80;99.90;;;;;;5070849;28;20194;-76
2022/09/29 00:08:29;;;;;;;1.67;1.58;;;12.80;99.90;;;;;;5068159;28;20213;-75
2022/09/29 00:10:56;;;;;;;2.15;1.95;;;12.80;99.90;;;;;;5068656;28;20224;-75
2022/09/29 00:13:24;;;;;;;1.88;1.77;;;12.80;99.90;;;;;;5071776;28;20779;-76
2022/09/29 00:15:58;;;;;;;2.08;1.98;;;12.70;99.90;;;;;;5067657;28;20229;-76
2022/09/29 00:18:25;;;;;;;1.63;1.52;;;12.80;99.90;;;;;;5067434;28;20221;-76
2022/09/29 00:21:00;;;;;;;1.67;1.58;;;12.80;99.90;;;;;;5068642;28;20222;-75
2022/09/29 00:23:29;;;;;;;1.75;1.65;;;12.80;99.90;;;;;;5067958;28;20583;-76
2022/09/29 00:26:01;;;;;;;1.80;1.70;;;12.80;99.90;;;;;;5069147;28;20234;-76
2022/09/29 00:28:28;;;;;;;1.75;1.65;;;12.80;99.90;;;;;;5065796;28;20210;-76
2022/09/29 00:30:55;;;;;;;1.85;1.75;;;12.80;99.90;;;;;;5068381;28;20222;-76
2022/09/29 00:33:22;;;;;;;1.90;1.80;;;12.70;99.90;;;;;;5070138;28;20236;-76
2022/09/29 00:35:57;;;;;;;1.83;1.73;;;12.70;99.90;;;;;;5071699;28;20202;-76
2022/09/29 00:38:24;;;;;;;1.80;1.70;;;12.70;99.90;;;;;;5072330;28;20356;-76
2022/09/29 00:40:53;;;;;;;2.28;2.17;;;12.80;99.90;;;;;;5071527;28;20634;-75
2022/09/29 00:43:22;;;;;;;1.70;1.60;;;12.80;99.90;;;;;;5074159;28;20595;-76
2022/09/29 00:45:51;;;;;;;1.60;1.50;;;12.80;99.90;;;;;;5091922;28;20297;-76
2022/09/29 00:48:24;;;;;;;1.90;1.80;;;12.80;99.90;;;;;;5088253;28;20222;-76
2022/09/29 00:50:53;;;;;;;1.65;1.55;;;12.80;99.90;;;;;;5068021;28;20271;-76
2022/09/29 00:53:22;;;;;;;2.05;1.95;;;12.70;99.90;;;;;;5069948;28;20230;-76
2022/09/29 00:55:53;;;;;;;1.92;1.83;;;12.70;99.90;;;;;;5071980;28;20200;-75
2022/09/29 00:58:28;;;;;;;2.13;2.03;;;12.70;99.90;;;;;;5071521;28;20221;-76
2022/09/29 01:00:55;;;;;;;1.70;1.60;;;12.70;99.90;;;;;;5070709;28;21036;-75
2022/09/29 01:03:26;;;;;;;2.00;1.90;;;12.70;99.90;;;;;;5072635;28;20217;-76
2022/09/29 01:05:58;;;;;;;2.00;1.90;;;12.70;99.90;;;;;;5071644;28;20259;-76
2022/09/29 01:08:28;;;;;;;2.08;1.83;;;12.70;99.90;;;;;;5071233;28;20226;-76
2022/09/29 01:10:59;;;;;;;1.80;1.70;;;12.70;99.90;;;;;;5084395;28;20561;-75
2022/09/29 01:13:27;;;;;;;1.60;1.50;;;12.60;99.90;;;;;;5070216;28;20229;-75
2022/09/29 01:15:54;;;;;;;1.92;1.83;;;12.60;99.90;;;;;;5071959;28;20199;-75
2022/09/29 01:18:21;;;;;;;1.50;1.40;;;12.60;99.90;;;;;;5070360;28;20234;-76
2022/09/29 01:20:56;;;;;;;1.73;1.63;;;12.70;99.90;;;;;;5073795;28;20700;-75
2022/09/29 01:23:46;;;;;;;1.38;1.38;;;12.70;99.90;;;;;;5067894;28;20297;-76
2022/09/29 01:27:02;;;;;;;1.55;1.45;;;12.70;99.90;;;;;;5071432;28;20198;-75
2022/09/29 01:29:54;;;;;;;2.08;1.98;;;12.70;99.90;;;;;;5008515;28;20220;-76
2022/09/29 01:32:32;;;;;;;2.00;1.90;;;12.70;99.90;;;;;;5009208;28;20868;-76
2022/09/29 01:35:09;;;;;;;1.80;1.70;;;12.70;99.90;;;;;;5056374;28;20217;-76
2022/09/29 01:37:48;;;;;;;1.77;1.67;;;12.70;99.90;;;;;;5067716;28;20263;-75
2022/09/29 01:40:18;;;;;;;1.85;1.75;;;12.70;99.90;;;;;;5071518;28;20230;-76
2022/09/29 01:42:55;;;;;;;1.80;1.70;;;12.80;99.90;;;;;;5071242;28;20363;-76
2022/09/29 01:45:29;;;;;;;1.35;1.33;;;12.80;99.90;;;;;;5087738;28;20221;-76
2022/09/29 01:48:04;;;;;;;1.52;1.42;;;12.80;99.90;;;;;;5089047;28;20619;-76
2022/09/29 01:50:36;;;;;;;1.60;1.50;;;12.80;99.90;;;;;;5083940;28;20263;-75
2022/09/29 01:53:08;;;;;;;1.60;1.50;;;12.80;99.90;;;;;;5084264;28;20189;-75
2022/09/29 01:55:41;;;;;;;1.65;1.55;;;12.80;99.90;;;;;;5087125;28;20198;-76
2022/09/29 01:58:13;;;;;;;1.70;1.60;;;12.80;99.90;;;;;;5092495;28;20221;-75
2022/09/29 02:00:45;;;;;;;1.73;1.63;;;12.80;99.90;;;;;;5088763;28;20222;-76
2022/09/29 02:03:18;;;;;;;1.60;1.50;;;12.80;99.90;;;;;;5088489;28;20189;-76
2022/09/29 02:05:49;;;;;;;1.80;1.70;;;12.80;99.90;;;;;;5094193;28;20204;-76
2022/09/29 02:08:22;;;;;;;2.30;2.13;;;12.80;99.90;;;;;;5095547;28;20764;-76
2022/09/29 02:10:55;;;;;;;1.85;1.80;;;12.80;99.90;;;;;;5085501;28;20225;-75
2022/09/29 02:13:24;;;;;;;1.60;1.50;;;12.70;99.90;;;;;;5089400;28;20229;-76
2022/09/29 02:15:54;;;;;;;2.05;1.90;;;12.70;99.90;;;;;;5087158;28;20209;-76
2022/09/29 02:18:26;;;;;;;1.50;1.40;;;12.70;99.90;;;;;;5087513;28;20311;-76
2022/09/29 02:20:53;;;;;;;1.85;1.75;;;12.70;99.90;;;;;;5087071;28;20290;-75
2022/09/29 02:23:20;;;;;;;1.70;1.60;;;12.70;99.90;;;;;;5086033;28;20601;-76
2022/09/29 02:25:49;;;;;;;1.63;1.52;;;12.70;99.90;;;;;;5086082;28;20221;-75
2022/09/29 02:28:17;;;;;;;1.90;1.80;;;12.70;99.90;;;;;;5082268;28;20275;-75
2022/09/29 02:30:44;;;;;;;2.00;1.90;;;12.70;99.90;;;;;;5071006;28;20226;-75
2022/09/29 02:33:19;;;;;;;1.63;1.52;;;12.70;99.90;;;;;;5066650;28;20552;-75
2022/09/29 02:35:58;;;;;;;1.80;1.70;;;12.70;99.90;;;;;;5071861;28;20208;-75
2022/09/29 02:38:36;;;;;;;1.70;1.60;;;12.70;99.90;;;;;;5069500;28;20218;-76
2022/09/29 02:41:15;;;;;;;2.00;1.90;;;12.70;99.90;;;;;;5070131;28;20329;-75
2022/09/29 02:44:02;;;;;;;1.98;1.88;;;12.70;99.90;;;;;;5071518;28;20229;-76
2022/09/29 02:46:44;;;;;;;2.17;1.88;;;12.60;99.90;;;;;;5071414;28;20255;-75
2022/09/29 02:49:28;;;;;;;1.73;1.63;;;12.70;99.90;;;;;;5069363;28;20218;-75
2022/09/29 02:52:00;;;;;;;1.60;1.50;;;12.60;99.90;;;;;;5069851;28;20198;-75
2022/09/29 02:54:47;;;;;;;2.17;2.03;;;12.70;99.90;;;;;;5066024;28;20218;-75
2022/09/29 02:57:21;;;;;;;1.70;1.60;;;12.70;99.90;;;;;;5073616;28;20241;-75
2022/09/29 02:59:56;;;;;;;1.52;1.50;;;12.70;99.90;;;;;;5069147;28;20222;-75
2022/09/29 03:02:25;;;;;;;1.75;1.65;;;12.70;99.90;;;;;;5076664;28;20174;-76
2022/09/29 03:04:52;;;;;;;1.75;1.65;;;12.60;99.90;;;;;;5076505;28;20735;-75
2022/09/29 03:07:21;;;;;;;1.90;1.80;;;12.60;99.90;;;;;;5068290;28;20198;-75
2022/09/29 03:09:48;;;;;;;1.80;1.70;;;12.60;99.90;;;;;;5068396;28;20705;-75
2022/09/29 03:12:17;;;;;;;2.17;2.00;;;12.60;99.90;;;;;;5068965;28;20229;-76
2022/09/29 03:14:44;;;;;;;1.83;1.73;;;12.60;99.90;;;;;;5066115;28;20230;-75
2022/09/29 03:17:11;;;;;;;1.98;1.88;;;12.50;99.90;;;;;;5066150;28;21409;-76
2022/09/29 03:19:38;;;;;;;1.85;1.75;;;12.50;99.90;;;;;;5070907;28;20704;-76
2022/09/29 03:22:05;;;;;;;1.92;1.83;;;12.60;99.90;;;;;;5070678;28;20801;-76
2022/09/29 03:24:34;;;;;;;1.85;1.75;;;12.50;99.90;;;;;;5067863;28;20597;-76
2022/09/29 03:27:01;;;;;;;1.70;1.60;;;12.60;99.90;;;;;;5068738;28;20194;-76
2022/09/29 03:29:28;;;;;;;2.13;2.03;;;12.60;99.90;;;;;;5069894;28;20218;-75
2022/09/29 03:31:55;;;;;;;1.85;1.75;;;12.60;99.90;;;;;;5069376;28;20202;-76
2022/09/29 03:34:22;;;;;;;1.70;1.60;;;12.60;99.90;;;;;;5065110;28;20295;-75
2022/09/29 03:36:49;;;;;;;2.00;1.90;;;12.60;99.90;;;;;;5067741;28;20209;-76
2022/09/29 03:39:16;;;;;;;1.70;1.60;;;12.60;99.90;;;;;;5066398;28;20276;-76
2022/09/29 03:41:45;;;;;;;1.90;1.80;;;12.70;99.90;;;;;;5071099;28;20699;-76
2022/09/29 03:44:12;;;;;;;2.00;1.90;;;12.70;99.90;;;;;;5066075;28;20692;-75
2022/09/29 03:46:39;;;;;;;1.90;1.80;;;12.70;99.90;;;;;;5068914;28;20203;-76
2022/09/29 03:49:06;;;;;;;1.80;1.70;;;12.70;99.90;;;;;;5070397;28;20561;-76
2022/09/29 03:51:33;;;;;;;1.90;1.80;;;12.70;99.90;;;;;;5068690;28;20213;-75
2022/09/29 03:54:00;;;;;;;2.00;1.90;;;12.70;99.90;;;;;;5068079;28;20218;-76
2022/09/29 03:56:27;;;;;;;2.75;2.20;;;12.60;99.90;;;;;;5067936;28;20217;-75
2022/09/29 03:58:55;;;;;;;1.90;1.80;;;12.70;99.90;;;;;;5072449;28;20230;-76
2022/09/29 04:01:22;;;;;;;1.70;1.60;;;12.60;99.90;;;;;;5077898;28;20214;-76
2022/09/29 04:03:49;;;;;;;1.95;1.85;;;12.60;99.90;;;;;;5068918;28;20228;-75
2022/09/29 04:06:16;;;;;;;2.22;2.13;;;12.60;99.90;;;;;;5068393;28;20220;-75
2022/09/29 04:08:43;;;;;;;2.00;1.90;;;12.60;99.90;;;;;;5067790;28;20231;-75
2022/09/29 04:11:10;;;;;;;1.98;1.70;;;12.60;99.90;;;;;;5066292;28;20221;-76
2022/09/29 04:13:37;;;;;;;2.00;1.90;;;12.60;99.90;;;;;;5067327;28;20230;-76
2022/09/29 04:16:06;;;;;;;2.05;1.95;;;12.60;99.90;;;;;;5068296;28;20718;-75
2022/09/29 04:18:34;;;;;;;1.70;1.60;;;12.60;99.90;;;;;;5068246;28;20226;-75
2022/09/29 04:21:06;;;;;;;2.00;1.90;;;12.60;99.90;;;;;;5067437;28;20225;-75
2022/09/29 04:23:33;;;;;;;2.40;2.22;;;12.60;99.90;;;;;;5067768;28;20222;-75
2022/09/29 04:26:01;;;;;;;2.10;2.00;;;12.60;99.90;;;;;;5067843;28;20194;-75
2022/09/29 04:28:30;;;;;;;1.80;1.70;;;12.60;99.90;;;;;;5068409;28;20222;-76
2022/09/29 04:30:57;;;;;;;1.90;1.80;;;12.60;99.90;;;;;;5066997;28;20218;-76
2022/09/29 04:33:26;;;;;;;1.70;1.60;;;12.60;99.90;;;;;;5067214;28;20222;-76
2022/09/29 04:35:53;;;;;;;1.88;1.77;;;12.60;99.90;;;;;;5067143;28;20613;-76
2022/09/29 04:38:20;;;;;;;2.22;2.03;;;12.60;99.90;;;;;;5061172;28;20226;-76
2022/09/29 04:40:47;;;;;;;2.00;1.85;;;12.60;99.90;;;;;;5070502;28;20272;-75
2022/09/29 04:43:15;;;;;;;2.00;1.90;;;12.60;99.90;;;;;;5067436;28;20221;-76
2022/09/29 04:45:42;;;;;;;1.80;1.70;;;12.60;99.90;;;;;;5068026;28;20666;-76
2022/09/29 04:48:09;;;;;;;1.92;1.83;;;12.60;99.90;;;;;;5066904;28;20187;-75
2022/09/29 04:50:37;;;;;;;2.55;2.15;;;12.60;99.90;;;;;;5065885;28;20217;-76
2022/09/29 04:53:04;;;;;;;2.10;2.00;;;12.50;99.90;;;;;;5066682;28;20218;-77
2022/09/29 04:55:31;;;;;;;2.03;1.92;;;12.50;99.90;;;;;;5065972;28;20211;-76
2022/09/29 04:57:58;;;;;;;2.20;2.10;;;12.50;99.90;;;;;;5065226;28;20242;-75
2022/09/29 05:00:25;;;;;;;2.47;2.28;;;12.50;99.90;;;;;;5069559;28;20222;-76
2022/09/29 05:02:52;;;;;;;2.03;1.92;;;12.50;99.90;;;;;;5069568;28;20198;-75
2022/09/29 05:05:19;;;;;;;1.77;1.67;;;12.50;99.90;;;;;;5066468;28;20696;-75
2022/09/29 05:07:48;;;;;;;1.80;1.70;;;12.60;99.90;;;;;;5070729;28;20212;-75
2022/09/29 05:10:15;;;;;;;1.92;1.83;;;12.60;99.90;;;;;;5059294;28;20218;-75
2022/09/29 05:12:47;;;;;;;1.95;1.85;;;12.60;99.90;;;;;;5069237;28;20198;-76
2022/09/29 05:15:15;;;;;;;2.03;1.92;;;12.50;99.90;;;;;;5066739;28;20214;-76
2022/09/29 05:17:42;;;;;;;2.00;1.90;;;12.50;99.90;;;;;;5067160;28;20217;-76
2022/09/29 05:20:10;;;;;;;1.95;1.85;;;12.50;99.90;;;;;;5070318;28;20214;-76
2022/09/29 05:22:37;;;;;;;2.17;2.08;;;12.50;99.90;;;;;;5072509;28;20209;-76
2022/09/29 05:25:07;;;;;;;2.47;2.17;;;12.50;99.90;;;;;;5071343;28;20218;-75
2022/09/29 05:27:35;;;;;;;2.25;2.05;;;12.50;99.90;;;;;;5067011;28;20198;-76
2022/09/29 05:30:03;;;;;;;2.08;1.98;;;12.50;99.90;;;;;;5070636;28;20218;-76
2022/09/29 05:32:30;;;;;;;2.05;1.95;;;12.50;99.90;;;;;;5071205;28;20281;-76
2022/09/29 05:34:58;;;;;;;2.40;2.30;;;12.60;99.90;;;;;;5071587;28;20305;-75
2022/09/29 05:37:25;;;;;;;2.10;1.95;;;12.60;99.90;;;;;;5070679;28;20244;-76
2022/09/29 05:39:52;;;;;;;2.53;1.92;;;12.50;99.90;;;;;;5071306;28;20214;-75
2022/09/29 05:42:20;;;;;;;2.05;1.90;;;12.60;99.90;;;;;;5071204;28;20687;-76
2022/09/29 05:44:47;;;;;;;2.30;2.10;;;12.60;99.90;;;;;;5071192;28;20275;-75
2022/09/29 05:47:14;;;;;;;1.92;1.83;;;12.60;99.90;;;;;;5071506;28;20195;-76
2022/09/29 05:49:41;;;;;;;1.98;1.88;;;12.60;99.90;;;;;;5070029;28;20275;-75
2022/09/29 05:52:08;;;;;;;1.80;1.60;;;12.60;99.90;;;;;;5072951;28;20206;-77
2022/09/29 05:54:35;;;;;;;1.90;1.80;;;12.60;99.90;;;;;;5075149;28;20280;-76
2022/09/29 05:57:03;;;;;;;2.17;2.08;;;12.60;99.90;;;;;;5072832;28;20202;-76
2022/09/29 05:59:31;;;;;;;2.08;1.98;;;12.60;99.90;;;;;;5067700;28;20753;-75
2022/09/29 06:01:58;;;;;;;2.05;1.95;;;12.70;99.90;;;;;;5069029;28;20225;-75
2022/09/29 06:04:25;;;;;;;2.90;2.70;;;12.60;99.90;;;;;;5069511;28;20279;-76
2022/09/29 06:06:54;;;;;;;1.90;1.80;;;12.70;99.90;;;;;;5071000;28;20598;-75
2022/09/29 06:09:21;;;;;;;1.90;1.80;;;12.70;99.90;;;;;;5069043;28;20240;-76
2022/09/29 06:11:48;;;;;;;2.15;2.00;;;12.70;99.90;;;;;;5069471;28;20194;-75
2022/09/29 06:14:15;;;;;;;2.83;2.53;;;12.80;99.90;;;;;;5066315;28;20591;-75
2022/09/29 06:16:44;;;;;;;2.70;2.50;;;12.80;99.90;;;;;;5069324;28;20202;-76
2022/09/29 06:19:11;;;;;;;2.50;2.30;;;12.80;99.90;;;;;;5067991;28;20612;-76
2022/09/29 06:21:38;;;;;;;2.72;2.53;;;12.80;99.90;;;;;;5069333;28;20221;-76
2022/09/29 06:24:07;;;;;;;2.00;1.90;;;12.80;99.90;;;;;;5068700;28;20225;-76
2022/09/29 06:26:34;;;;;;;2.22;2.13;;;12.80;99.90;;;;;;5064213;28;20202;-75
2022/09/29 06:29:01;;;;;;;2.33;2.20;;;12.80;99.90;;;;;;5066027;28;20305;-75
2022/09/29 06:31:30;;;;;;;2.70;2.30;;;12.80;99.90;;;;;;5069156;28;20662;-75
2022/09/29 06:34:00;;;;;;;2.67;2.47;;;12.80;99.90;;;;;;5068660;28;20222;-75
2022/09/29 06:39:16;;;;;;;2.22;2.13;;;12.80;99.90;;;;;;5070956;28;20221;-76
2022/09/29 06:41:47;;;;;;;2.45;2.20;;;12.80;99.90;;;;;;5070999;28;20214;-75
2022/09/29 06:44:14;;;;;;;2.17;2.08;;;12.80;99.90;;;;;;5068787;28;20297;-76
2022/09/29 06:46:41;;;;;;;2.45;2.25;;;12.80;99.90;;;;;;5069775;28;20289;-75
2022/09/29 06:49:12;;;;;;;2.55;1.90;;;12.90;99.90;;;;;;5070127;28;20770;-76
2022/09/29 06:51:39;;;;;;;2.33;2.22;;;12.90;99.90;;;;;;5069287;28;20709;-76
2022/09/29 06:54:06;;;;;;;1.90;1.80;;;12.90;99.90;;;;;;5067335;28;20237;-76
2022/09/29 06:56:33;;;;;;;2.38;2.17;;;13.00;99.90;;;;;;5069096;28;20280;-76
2022/09/29 06:59:00;;;;;;;2.22;2.03;;;13.00;99.90;;;;;;5068600;28;20229;-75
2022/09/29 07:01:27;;;;;;;2.80;2.50;;;13.00;99.90;;;;;;5071089;28;20264;-76
2022/09/29 07:03:54;;;;;;;2.78;2.58;;;13.00;99.90;;;;;;5067715;28;20222;-76
2022/09/29 07:06:23;;;;;;;2.72;2.20;;;13.00;99.90;;;;;;5069054;28;20210;-75
2022/09/29 07:08:54;;;;;;;2.92;2.72;;;13.00;99.90;;;;;;5068437;28;20221;-75
2022/09/29 07:11:21;;;;;;;3.92;2.90;;;13.00;99.90;;;;;;5069215;28;20218;-76
2022/09/29 07:13:50;;;;;;;3.08;2.65;;;13.00;99.90;;;;;;5066700;28;20221;-76
2022/09/29 07:16:18;;;;;;;4.85;3.60;;;13.00;99.90;;;;;;5067786;28;20201;-75
2022/09/29 07:18:45;;;;;;;3.53;3.22;;;13.00;99.90;;;;;;5068508;28;20225;-76
2022/09/29 07:21:16;;;;;;;3.42;3.13;;;13.10;99.90;;;;;;5067518;28;20819;-76
2022/09/29 07:23:46;;;;;;;2.92;2.67;;;13.20;99.90;;;;;;5067536;28;20225;-75
2022/09/29 07:26:15;;;;;;;3.00;2.80;;;13.30;99.90;;;;;;5068763;28;20534;-74
2022/09/29 07:28:42;;;;;;;2.53;2.40;;;13.40;99.90;;;;;;5068159;28;20217;-76
2022/09/29 07:31:12;;;;;;;2.55;2.35;;;13.50;99.90;;;;;;5068465;28;20221;-75
2022/09/29 07:33:39;;;;;;;2.95;2.72;;;13.60;99.90;;;;;;5067970;28;20217;-76
2022/09/29 07:36:06;;;;;;;2.90;2.70;;;13.70;99.90;;;;;;5068865;28;20248;-75
2022/09/29 07:38:33;;;;;;;3.08;2.78;;;13.80;99.90;;;;;;5068264;28;20219;-76
2022/09/29 07:41:03;;;;;;;3.20;2.80;;;14.00;99.90;;;;;;5068655;28;20236;-75
2022/09/29 07:43:30;;;;;;;2.50;2.30;;;14.20;99.90;;;;;;5066572;28;20218;-76
2022/09/29 07:45:59;;;;;;;2.72;2.53;;;14.40;99.90;;;;;;5073135;28;20247;-76
2022/09/29 07:48:26;;;;;;;3.75;2.65;;;14.50;99.90;;;;;;5068075;28;20271;-76
2022/09/29 07:50:59;;;;;;;2.80;2.60;;;14.70;99.90;;;;;;5068052;28;20726;-75
2022/09/29 07:53:26;;;;;;;2.42;2.33;;;14.70;99.90;;;;;;5067555;28;20789;-76
2022/09/29 07:55:54;;;;;;;2.97;2.65;;;14.80;99.90;;;;;;5069909;28;20202;-76
2022/09/29 07:58:22;;;;;;;3.42;2.60;;;14.90;99.90;;;;;;5067327;28;20229;-75
2022/09/29 08:00:54;;;;;;;3.05;2.80;;;15.00;99.90;;;;;;5067101;28;20218;-75
2022/09/29 08:03:22;;;;;;;2.63;2.38;;;15.00;99.90;;;;;;5067730;28;20218;-76
2022/09/29 08:05:49;;;;;;;3.25;2.60;;;15.00;99.90;;;;;;5068184;28;20205;-75
2022/09/29 08:08:16;;;;;;;2.13;1.98;;;15.10;99.90;;;;;;5070507;28;20761;-75
2022/09/29 08:10:43;;;;;;;2.22;2.13;;;15.30;99.90;;;;;;5067911;28;20226;-76
2022/09/29 08:13:11;;;;;;;2.38;2.10;;;15.30;99.90;;;;;;5066246;28;20736;-76
2022/09/29 08:15:39;;;;;;;2.40;2.17;;;15.30;99.90;;;;;;5068378;28;20631;-76
2022/09/29 08:18:06;;;;;;;2.88;2.60;;;15.10;99.90;;;;;;5067289;28;20201;-76
2022/09/29 08:20:35;;;;;;;2.53;2.33;;;14.80;99.90;;;;;;5067867;28;20210;-75
2022/09/29 08:23:02;;;;;;;2.30;2.20;;;14.70;99.90;;;;;;5066228;28;20198;-75
2022/09/29 08:25:29;;;;;;;2.90;2.60;;;14.60;99.90;;;;;;5068182;28;20191;-76
2022/09/29 08:27:56;;;;;;;1.95;1.85;;;14.70;99.90;;;;;;5067255;28;20256;-75
2022/09/29 08:30:23;;;;;;;2.28;2.08;;;15.00;99.90;;;;;;5068074;28;20212;-75
2022/09/29 08:32:55;;;;;;;2.55;2.35;;;15.20;99.90;;;;;;5066430;28;20288;-76
2022/09/29 08:35:24;;;;;;;3.70;2.35;;;15.60;99.90;;;;;;5069841;28;20220;-76
2022/09/29 08:37:53;;;;;;;2.65;2.45;;;15.90;99.90;;;;;;5067949;28;20202;-75
2022/09/29 08:40:21;;;;;;;3.13;2.20;;;16.30;99.90;;;;;;5087472;28;20859;-76
2022/09/29 08:43:01;;;;;;;3.55;2.35;;;16.50;99.90;;;;;;5089179;28;20213;-75
2022/09/29 08:45:30;;;;;;;2.45;2.25;;;16.70;99.90;;;;;;5087512;28;20300;-75
2022/09/29 08:48:06;;;;;;;3.13;2.38;;;16.90;99.90;;;;;;5082176;28;20198;-76
2022/09/29 08:50:38;;;;;;;2.33;2.13;;;17.10;99.90;;;;;;5087688;28;20601;-76
2022/09/29 08:53:09;;;;;;;3.97;2.30;;;17.20;99.90;;;;;;5083364;28;20190;-76
2022/09/29 08:55:43;;;;;;;4.03;2.10;;;17.60;99.90;;;;;;5091763;28;20205;-76
2022/09/29 08:58:13;;;;;;;2.47;2.28;;;18.10;99.90;;;;;;5088834;28;20192;-76
2022/09/29 09:00:46;;;;;;;2.80;2.42;;;18.20;99.90;;;;;;5073917;28;20225;-76
2022/09/29 09:03:24;;;;;;;2.35;2.17;;;17.70;99.90;;;;;;5071083;28;20719;-76
2022/09/29 09:06:11;;;;;;;2.40;2.17;;;17.30;99.90;;;;;;5071274;28;20209;-76
2022/09/29 09:08:56;;;;;;;2.85;2.10;;;17.00;99.90;;;;;;5071715;28;20703;-76
2022/09/29 09:11:36;;;;;;;3.67;2.28;;;16.80;99.90;;;;;;5073149;28;20229;-76
2022/09/29 09:14:12;;;;;;;2.65;2.03;;;16.90;99.90;;;;;;5070041;28;20831;-76
2022/09/29 09:16:48;;;;;;;2.38;2.17;;;17.10;99.90;;;;;;5071306;28;20198;-76
2022/09/29 09:19:44;;;;;;;2.33;2.13;;;17.40;99.90;;;;;;5069368;28;20226;-76
2022/09/29 09:22:21;;;;;;;2.63;2.42;;;17.60;99.90;;;;;;5073784;28;20660;-76
2022/09/29 09:24:52;;;;;;;2.28;2.10;;;17.80;99.90;;;;;;5069235;28;20305;-76
2022/09/29 09:27:25;;;;;;;2.45;2.25;;;17.40;99.90;;;;;;5069212;28;20205;-76
2022/09/29 09:30:02;;;;;;;2.30;2.13;;;17.10;99.90;;;;;;5068850;28;20219;-76
2022/09/29 09:32:31;;;;;;;2.30;2.10;;;17.00;99.90;;;;;;5068675;28;20202;-76
2022/09/29 09:35:05;;;;;;;2.05;1.92;;;17.00;99.90;;;;;;5071783;28;20210;-75
2022/09/29 09:37:37;;;;;;;2.30;2.10;;;17.10;99.90;;;;;;5069946;28;20261;-75
2022/09/29 09:40:11;;;;;;;2.17;1.98;;;17.40;99.90;;;;;;5069877;28;20283;-75
2022/09/29 09:42:42;;;;;;;2.83;2.15;;;18.00;99.90;;;;;;5070753;28;20209;-76
2022/09/29 09:45:14;;;;;;;2.92;2.22;;;18.10;99.90;;;;;;5071785;28;20229;-76
2022/09/29 09:47:48;;;;;;;2.13;1.92;;;18.00;99.90;;;;;;5071121;28;20205;-75
2022/09/29 09:50:19;;;;;;;1.98;1.88;;;17.80;99.90;;;;;;5070546;28;20222;-76
2022/09/29 09:52:51;;;;;;;1.88;1.77;;;17.50;99.90;;;;;;5070901;28;20217;-76
2022/09/29 09:55:20;;;;;;;2.05;1.77;;;17.40;99.90;;;;;;5070444;28;20712;-76
2022/09/29 09:58:10;;;;;;;1.83;1.60;;;17.20;99.90;;;;;;5070756;28;20205;-76
2022/09/29 10:00:42;;;;;;;2.20;2.00;;;17.10;99.90;;;;;;5067621;28;20305;-76
2022/09/29 10:03:11;;;;;;;2.15;2.05;;;16.90;99.90;;;;;;5070181;28;20194;-76
2022/09/29 10:05:41;;;;;;;2.05;1.88;;;17.00;99.90;;;;;;5069591;28;20206;-76
2022/09/29 10:08:14;;;;;;;3.00;1.90;;;17.10;99.90;;;;;;5070757;28;20700;-76
2022/09/29 10:10:43;;;;;;;1.60;1.50;;;17.20;99.90;;;;;;5070611;28;20214;-76
2022/09/29 10:13:12;;;;;;;2.15;1.95;;;17.40;99.90;;;;;;5069946;28;20210;-76
2022/09/29 10:15:45;;;;;;;2.20;2.00;;;17.90;99.90;;;;;;5070395;28;20716;-76
2022/09/29 10:18:16;;;;;;;2.42;2.00;;;18.20;99.90;;;;;;5071172;28;20234;-75
2022/09/29 10:20:45;;;;;;;4.53;2.03;;;18.60;99.90;;;;;;5070683;28;20234;-75
2022/09/29 10:23:26;;;;;;;2.55;2.10;;;18.90;99.90;;;;;;5066522;28;20206;-75
2022/09/29 10:26:01;;;;;;;1.95;1.85;;;19.10;99.90;;;;;;5069801;28;20194;-76
2022/09/29 10:28:37;;;;;;;2.95;1.77;;;19.00;99.90;;;;;;5072374;28;20292;-75
2022/09/29 10:31:16;;;;;;;2.13;1.90;;;19.40;99.90;;;;;;5069843;28;20241;-76
2022/09/29 10:33:50;;;;;;;2.75;1.98;;;20.10;99.90;;;;;;5067878;28;20316;-76
2022/09/29 10:36:20;;;;;;;3.08;2.17;;;19.90;99.90;;;;;;5068197;28;20298;-75
2022/09/29 10:38:50;;;;;;;1.98;1.77;;;19.60;99.90;;;;;;5070926;28;20214;-75
2022/09/29 10:41:18;;;;;;;2.03;1.80;;;19.40;99.90;;;;;;5070364;28;20222;-76
2022/09/29 10:43:47;;;;;;;1.98;1.63;;;19.30;99.90;;;;;;5069010;28;20275;-76
2022/09/29 10:46:38;;;;;;;2.47;1.95;;;19.30;99.90;;;;;;5070271;28;20201;-76
2022/09/29 10:49:14;;;;;;;2.28;1.90;;;19.40;99.90;;;;;;5064419;28;20217;-76
2022/09/29 10:51:53;;;;;;;2.15;1.90;;;19.50;99.90;;;;;;5067872;28;20237;-76
2022/09/29 10:54:25;;;;;;;2.83;2.15;;;19.40;99.90;;;;;;5067562;28;20217;-76
2022/09/29 10:56:52;;;;;;;2.03;1.83;;;19.30;99.90;;;;;;5069710;28;20230;-76
2022/09/29 10:59:20;;;;;;;2.72;1.80;;;19.60;99.90;;;;;;5069788;28;20225;-75
2022/09/29 11:01:50;;;;;;;2.03;1.70;;;19.80;99.90;;;;;;5071548;28;20224;-75
2022/09/29 11:04:20;;;;;;;2.78;2.00;;;19.90;99.90;;;;;;5068929;28;20214;-76
2022/09/29 11:06:50;;;;;;;1.90;1.70;;;20.10;99.90;;;;;;5069170;28;20197;-75
2022/09/29 11:09:30;;;;;;;5.32;1.90;;;20.00;99.90;;;;;;5069511;28;20218;-76
2022/09/29 11:12:00;;;;;;;2.35;1.67;;;19.90;99.90;;;;;;5064995;28;20206;-76
2022/09/29 11:14:30;;;;;;;2.90;1.90;;;19.70;99.90;;;;;;5070097;28;20723;-76
2022/09/29 11:16:59;;;;;;;2.22;1.90;;;19.50;99.90;;;;;;5068781;28;20552;-76
2022/09/29 11:19:29;;;;;;;1.83;1.67;;;19.40;99.90;;;;;;5069403;28;20824;-76
2022/09/29 11:22:22;;;;;;;2.05;1.80;;;19.50;99.90;;;;;;5068770;28;20718;-76
2022/09/29 11:25:18;;;;;;;2.65;2.45;;;19.30;99.90;;;;;;5068696;28;20221;-76
2022/09/29 11:28:06;;;;;;;5.20;2.67;;;19.00;99.90;;;;;;5065811;28;20198;-76
2022/09/29 11:30:44;;;;;;;3.20;2.33;;;18.70;99.90;;;;;;5087012;28;20229;-76
2022/09/29 11:33:26;;;;;;;2.30;2.10;;;18.60;99.90;;;;;;5086208;28;20192;-76
2022/09/29 11:35:58;;;;;;;2.05;1.95;;;18.40;99.90;;;;;;5090726;28;20197;-78
2022/09/29 11:38:41;;;;;;;2.22;1.90;;;18.20;99.90;;;;;;5092275;28;20217;-76
2022/09/29 11:41:41;;;;;;;3.08;2.22;;;18.10;99.90;;;;;;5091373;28;20218;-76
2022/09/29 11:44:25;;;;;;;3.75;2.10;;;18.20;99.90;;;;;;5091139;28;20217;-76
2022/09/29 11:47:04;;;;;;;2.50;2.25;;;18.20;99.90;;;;;;5089895;28;20660;-76
2022/09/29 11:49:58;;;;;;;4.10;2.17;;;18.20;99.90;;;;;;5086961;28;20269;-76
2022/09/29 11:52:46;;;;;;;2.97;2.50;;;18.20;99.90;;;;;;5088912;28;20216;-76
2022/09/29 11:55:28;;;;;;;5.80;2.60;;;18.10;99.90;;;;;;5086376;28;20217;-76
2022/09/29 11:58:08;;;;;;;2.00;1.88;;;18.00;99.90;;;;;;5090545;28;20198;-75
2022/09/29 12:01:00;;;;;;;2.53;2.00;;;18.10;99.90;;;;;;5085798;28;20217;-76
2022/09/29 12:03:40;;;;;;;2.22;2.00;;;18.30;99.90;;;;;;5089773;28;20308;-75
2022/09/29 12:06:46;;;;;;;2.80;2.05;;;18.50;99.90;;;;;;5090892;28;20202;-75
2022/09/29 12:09:32;;;;;;;3.22;2.10;;;18.40;99.90;;;;;;5034642;28;20216;-76
2022/09/29 12:12:09;;;;;;;2.78;2.13;;;18.40;99.90;;;;;;5084488;28;20274;-76
2022/09/29 12:14:43;;;;;;;2.92;2.17;;;18.30;99.90;;;;;;5087273;28;20246;-76
2022/09/29 12:17:15;;;;;;;3.33;2.38;;;18.10;99.90;;;;;;5088130;28;20714;-75
2022/09/29 12:19:44;;;;;;;6.07;2.70;;;18.00;99.90;;;;;;5090218;28;20982;-76
2022/09/29 12:22:17;;;;;;;3.55;2.20;;;17.90;99.90;;;;;;5091469;28;20228;-76
2022/09/29 12:24:48;;;;;;;4.57;2.10;;;18.20;99.90;;;;;;5089047;28;20231;-75
2022/09/29 12:27:22;;;;;;;3.30;2.20;;;18.40;99.90;;;;;;5091376;28;20196;-75
2022/09/29 12:29:53;;;;;;;3.83;2.40;;;18.60;99.90;;;;;;5089363;28;20216;-76
2022/09/29 12:32:27;;;;;;;2.72;2.13;;;18.80;99.90;;;;;;5091742;28;20647;-75
2022/09/29 12:34:57;;;;;;;2.63;2.25;;;19.00;99.90;;;;;;5089435;28;20221;-76
2022/09/29 12:37:31;;;;;;;2.55;2.30;;;19.20;99.90;;;;;;5089326;28;20197;-76
2022/09/29 12:40:05;;;;;;;2.78;2.00;;;19.30;99.90;;;;;;5091831;28;20210;-76
2022/09/29 12:43:02;;;;;;;5.10;2.10;;;18.90;99.90;;;;;;5093302;28;20208;-76
2022/09/29 12:45:35;;;;;;;3.72;2.10;;;18.40;99.90;;;;;;5082834;28;20300;-76
2022/09/29 12:48:26;;;;;;;3.90;1.80;;;18.10;99.90;;;;;;5086416;28;20675;-76
2022/09/29 12:51:01;;;;;;;4.40;2.40;;;17.70;99.90;;;;;;5089479;28;20669;-76
2022/09/29 12:53:34;;;;;;;3.05;2.08;;;17.50;99.90;;;;;;5087771;28;20256;-76
2022/09/29 12:56:05;;;;;;;2.83;2.25;;;17.40;99.90;;;;;;5094214;28;20332;-76
2022/09/29 12:58:41;;;;;;;2.30;1.85;;;17.60;99.90;;;;;;5085925;28;20209;-76
2022/09/29 13:01:27;;;;;;;2.83;2.35;;;17.90;99.90;;;;;;5093990;28;20213;-76
2022/09/29 13:04:37;;;;;;;3.10;2.20;;;17.80;99.90;;;;;;5087489;28;20221;-77
2022/09/29 13:07:33;;;;;;;1.15;1.05;;;17.60;99.90;;;;;;5089939;28;20280;-76
2022/09/29 13:10:23;;;;;;;3.83;1.30;;;17.50;99.90;;;;;;5085563;28;20236;-76
2022/09/29 13:13:12;;;;;;;3.42;1.20;;;17.40;99.90;;;;;;5091406;28;20201;-76
2022/09/29 13:15:58;;;;;;;1.27;1.10;;;17.40;99.90;;;;;;5087550;28;20271;-77